Time;durP1;ratioP1;P1;durP2;ratioP2;P2;SDS_P1;SDS_P2;PMS_P1;PMS_P2;Temp;Humidity;BMP_temperature;BMP_pressure;BME280_temperature;BME280_humidity;BME280_pressure;Samples;Min_cycle;Max_cycle;Signal;HPM_P1;HPM_P2
2021/11/13 00:00:09;;;;;;;13.10;6.32;;;7.40;92.20;;;;;;4979573;28;20466;-88
2021/11/13 00:02:36;;;;;;;8.25;5.75;;;7.40;92.40;;;;;;4979854;28;20076;-88
2021/11/13 00:05:03;;;;;;;11.55;6.85;;;7.30;92.40;;;;;;4997068;28;20124;-88
2021/11/13 00:07:28;;;;;;;9.77;5.05;;;7.30;92.30;;;;;;4980408;28;20389;-88
2021/11/13 00:09:54;;;;;;;12.02;6.15;;;7.30;92.40;;;;;;4979842;28;20022;-88
2021/11/13 00:12:20;;;;;;;9.93;4.82;;;7.30;92.20;;;;;;4979513;28;20385;-88
2021/11/13 00:14:46;;;;;;;9.23;5.80;;;7.30;92.20;;;;;;4997184;28;20026;-88
2021/11/13 00:17:13;;;;;;;6.15;4.03;;;7.40;92.20;;;;;;4979581;28;20030;-88
2021/11/13 00:19:40;;;;;;;10.70;5.18;;;7.30;92.20;;;;;;4979915;28;20036;-88
2021/11/13 00:22:06;;;;;;;8.57;3.72;;;7.30;92.20;;;;;;4979545;28;20477;-88
2021/11/13 00:24:32;;;;;;;7.60;3.75;;;7.40;92.30;;;;;;4979545;28;20030;-88
2021/11/13 00:26:58;;;;;;;6.53;3.38;;;7.40;92.50;;;;;;4979141;28;20111;-88
2021/11/13 00:29:25;;;;;;;7.32;4.07;;;7.40;92.50;;;;;;4996775;28;20033;-88
2021/11/13 00:31:53;;;;;;;6.70;3.88;;;7.40;92.30;;;;;;4996791;28;20026;-88
2021/11/13 00:34:19;;;;;;;8.60;3.80;;;7.50;92.20;;;;;;4980135;28;20417;-88
2021/11/13 00:36:45;;;;;;;6.88;3.67;;;7.40;92.20;;;;;;4979639;28;20488;-88
2021/11/13 00:39:11;;;;;;;7.70;3.53;;;7.50;92.40;;;;;;4979389;28;20370;-89
2021/11/13 00:41:37;;;;;;;8.85;4.65;;;7.50;92.40;;;;;;4979517;28;20034;-89
2021/11/13 00:44:04;;;;;;;7.18;3.92;;;7.50;92.30;;;;;;4979164;28;20030;-89
2021/11/13 00:46:31;;;;;;;10.55;4.32;;;7.60;92.30;;;;;;4979135;28;20058;-88
2021/11/13 00:48:57;;;;;;;9.80;4.90;;;7.50;92.10;;;;;;4979460;28;20386;-89
2021/11/13 00:51:23;;;;;;;7.68;3.25;;;7.50;92.10;;;;;;4979744;28;20480;-88
2021/11/13 00:53:48;;;;;;;7.35;3.58;;;7.50;92.20;;;;;;4978991;28;20066;-88
2021/11/13 00:56:14;;;;;;;6.18;3.25;;;7.50;92.30;;;;;;4978924;28;20053;-88
2021/11/13 00:58:40;;;;;;;9.35;4.80;;;7.50;92.40;;;;;;4978796;28;20091;-89
2021/11/13 01:01:06;;;;;;;7.85;4.68;;;7.50;92.30;;;;;;4996380;28;20027;-88
2021/11/13 01:03:33;;;;;;;9.40;4.22;;;7.50;92.30;;;;;;4978765;28;20023;-89
2021/11/13 01:05:59;;;;;;;7.18;4.43;;;7.50;92.20;;;;;;4979008;28;20377;-88
2021/11/13 01:08:25;;;;;;;7.28;3.70;;;7.50;92.20;;;;;;4978984;28;20026;-88
2021/11/13 01:10:51;;;;;;;9.82;4.53;;;7.50;92.20;;;;;;4978805;28;20397;-88
2021/11/13 01:13:19;;;;;;;6.35;4.32;;;7.50;92.10;;;;;;4978486;28;20026;-88
2021/11/13 01:15:45;;;;;;;9.07;5.03;;;7.50;92.20;;;;;;4978466;28;20359;-88
2021/11/13 01:18:11;;;;;;;11.07;4.47;;;7.50;92.20;;;;;;4995952;28;20037;-88
2021/11/13 01:20:37;;;;;;;6.93;4.18;;;7.50;92.20;;;;;;4978469;28;20456;-88
2021/11/13 01:23:03;;;;;;;7.95;4.00;;;7.50;92.20;;;;;;4978258;28;20085;-89
2021/11/13 01:25:29;;;;;;;9.68;4.80;;;7.40;92.10;;;;;;4979194;28;20450;-89
2021/11/13 01:27:55;;;;;;;9.95;5.28;;;7.40;92.10;;;;;;4978660;28;20466;-88
2021/11/13 01:30:21;;;;;;;8.45;4.35;;;7.40;92.10;;;;;;4978608;28;20030;-88
2021/11/13 01:32:47;;;;;;;11.85;5.40;;;7.40;92.20;;;;;;4995780;28;20022;-88
2021/11/13 01:35:15;;;;;;;6.78;3.97;;;7.40;92.20;;;;;;4978429;28;20026;-88
2021/11/13 01:37:40;;;;;;;9.27;4.22;;;7.40;92.30;;;;;;4978037;28;20045;-89
2021/11/13 01:40:09;;;;;;;6.80;3.10;;;7.40;92.30;;;;;;4978006;28;20386;-88
2021/11/13 01:42:36;;;;;;;7.28;4.40;;;7.40;92.40;;;;;;4978139;28;20422;-88
2021/11/13 01:45:05;;;;;;;5.53;3.75;;;7.40;92.30;;;;;;4978201;28;20034;-89
2021/11/13 01:47:31;;;;;;;6.82;3.75;;;7.50;92.40;;;;;;4977935;28;20465;-89
2021/11/13 01:49:56;;;;;;;6.50;3.50;;;7.50;92.30;;;;;;4977944;28;20022;-89
2021/11/13 01:52:22;;;;;;;5.53;3.05;;;7.50;92.20;;;;;;4977748;28;20027;-89
2021/11/13 01:54:48;;;;;;;7.25;3.13;;;7.50;92.10;;;;;;4977675;28;20432;-89
2021/11/13 01:57:25;;;;;;;7.05;2.75;;;7.50;92.10;;;;;;4977717;28;20093;-88
2021/11/13 01:59:52;;;;;;;2.78;2.47;;;7.60;92.30;;;;;;4978323;28;20037;-89
2021/11/13 02:02:18;;;;;;;6.88;4.53;;;7.60;92.00;;;;;;4993878;28;20060;-88
2021/11/13 02:04:45;;;;;;;7.53;4.63;;;7.50;92.00;;;;;;4977806;28;20033;-88
2021/11/13 02:07:11;;;;;;;5.30;3.28;;;7.50;92.00;;;;;;4977803;28;20460;-88
2021/11/13 02:09:38;;;;;;;7.60;4.05;;;7.60;92.00;;;;;;4977672;28;20051;-88
2021/11/13 02:12:04;;;;;;;3.45;2.40;;;7.60;92.00;;;;;;4977596;28;20030;-88
2021/11/13 02:14:30;;;;;;;4.80;2.83;;;7.60;92.00;;;;;;4977517;28;20033;-88
2021/11/13 02:16:57;;;;;;;6.07;3.03;;;7.60;92.10;;;;;;4977484;28;20026;-89
2021/11/13 02:19:23;;;;;;;6.07;4.10;;;7.60;92.20;;;;;;4977482;28;20033;-88
2021/11/13 02:21:49;;;;;;;8.38;2.85;;;7.60;92.00;;;;;;4977231;28;20137;-89
2021/11/13 02:24:14;;;;;;;5.55;3.53;;;7.60;92.00;;;;;;4993241;28;20129;-89
2021/11/13 02:26:40;;;;;;;5.55;3.13;;;7.70;92.00;;;;;;4977271;28;20132;-88
2021/11/13 02:29:06;;;;;;;5.65;3.88;;;7.60;91.90;;;;;;4977657;28;20022;-89
2021/11/13 02:31:43;;;;;;;6.38;3.78;;;7.70;91.90;;;;;;4993651;28;20053;-88
2021/11/13 02:34:11;;;;;;;4.82;3.53;;;7.70;91.90;;;;;;4978298;28;20053;-88
2021/11/13 02:36:37;;;;;;;9.25;3.55;;;7.70;91.90;;;;;;4977252;28;20104;-89
2021/11/13 02:39:07;;;;;;;8.05;3.72;;;7.70;91.90;;;;;;4977312;28;20074;-89
2021/11/13 02:41:33;;;;;;;5.10;3.53;;;7.70;91.80;;;;;;4977363;28;20033;-89
2021/11/13 02:44:00;;;;;;;8.27;4.10;;;7.70;91.70;;;;;;4977518;28;20037;-88
2021/11/13 02:46:26;;;;;;;6.78;3.67;;;7.70;91.60;;;;;;4977213;28;20022;-88
2021/11/13 02:48:52;;;;;;;8.15;4.25;;;7.70;91.60;;;;;;4977188;28;20041;-88
2021/11/13 02:51:18;;;;;;;9.45;4.72;;;7.60;91.60;;;;;;4977440;28;20404;-88
2021/11/13 02:53:48;;;;;;;9.23;5.07;;;7.60;91.60;;;;;;4977199;28;20032;-88
2021/11/13 02:56:15;;;;;;;9.18;4.15;;;7.60;91.70;;;;;;4994360;28;20528;-89
2021/11/13 02:58:40;;;;;;;6.78;4.32;;;7.50;91.70;;;;;;4977150;28;20065;-89
2021/11/13 03:01:12;;;;;;;9.77;4.25;;;7.50;91.80;;;;;;4977118;28;20034;-89
2021/11/13 03:03:39;;;;;;;9.00;4.65;;;7.50;91.80;;;;;;4976892;28;20035;-88
2021/11/13 03:06:11;;;;;;;12.93;6.13;;;7.50;91.90;;;;;;4976874;28;20084;-89
2021/11/13 03:08:38;;;;;;;9.52;5.13;;;7.50;91.70;;;;;;4977334;28;20117;-88
2021/11/13 03:11:08;;;;;;;6.72;4.50;;;7.50;91.80;;;;;;4994290;28;20026;-88
2021/11/13 03:13:37;;;;;;;7.97;5.32;;;7.40;91.80;;;;;;4976932;28;20022;-88
2021/11/13 03:16:05;;;;;;;12.50;6.80;;;7.40;91.90;;;;;;4976593;28;20057;-88
2021/11/13 03:18:31;;;;;;;10.30;5.68;;;7.30;92.00;;;;;;4977126;28;20464;-88
2021/11/13 03:20:58;;;;;;;6.65;4.72;;;7.30;91.90;;;;;;4977086;28;20097;-88
2021/11/13 03:23:25;;;;;;;8.50;4.65;;;7.20;92.10;;;;;;4959681;28;20047;-88
2021/11/13 03:26:14;;;;;;;13.15;5.25;;;7.20;92.20;;;;;;4957129;28;20038;-89
2021/11/13 03:28:44;;;;;;;7.00;3.45;;;7.20;92.20;;;;;;4956684;28;20066;-89
2021/11/13 03:31:10;;;;;;;9.32;3.75;;;7.20;92.30;;;;;;4974017;28;20033;-88
2021/11/13 03:33:38;;;;;;;4.20;2.60;;;7.20;92.40;;;;;;4956954;28;20375;-88
2021/11/13 03:36:05;;;;;;;6.57;3.05;;;7.20;92.40;;;;;;4960161;28;20082;-89
2021/11/13 03:38:32;;;;;;;6.93;3.97;;;7.30;92.30;;;;;;4960883;28;20454;-89
2021/11/13 03:40:58;;;;;;;8.73;4.10;;;7.30;92.20;;;;;;4978130;28;20086;-88
2021/11/13 03:43:25;;;;;;;5.03;3.28;;;7.30;92.40;;;;;;4960434;28;20058;-88
2021/11/13 03:45:51;;;;;;;6.35;3.15;;;7.30;92.20;;;;;;4960848;28;20031;-88
2021/11/13 03:48:17;;;;;;;6.72;3.25;;;7.30;92.20;;;;;;4978091;28;20470;-88
2021/11/13 03:50:43;;;;;;;5.13;3.70;;;7.30;92.20;;;;;;4960328;28;20031;-88
2021/11/13 03:53:09;;;;;;;9.05;3.80;;;7.30;92.20;;;;;;4960677;28;20078;-88
2021/11/13 03:55:36;;;;;;;7.45;4.45;;;7.40;92.20;;;;;;4960402;28;20129;-88
2021/11/13 03:58:02;;;;;;;6.78;4.03;;;7.30;92.40;;;;;;4977567;28;20423;-88
2021/11/13 04:00:29;;;;;;;5.32;3.13;;;7.30;92.10;;;;;;4977480;28;20061;-88
2021/11/13 04:02:56;;;;;;;7.18;4.32;;;7.30;92.10;;;;;;4960370;28;20027;-88
2021/11/13 04:05:22;;;;;;;6.07;3.70;;;7.30;92.20;;;;;;4960043;28;20118;-88
2021/11/13 04:07:50;;;;;;;8.82;3.35;;;7.30;92.30;;;;;;4977287;28;20039;-88
2021/11/13 04:10:17;;;;;;;4.68;3.08;;;7.30;92.20;;;;;;4959954;28;20478;-89
2021/11/13 04:12:43;;;;;;;4.35;2.53;;;7.30;92.20;;;;;;4960144;28;20069;-88
2021/11/13 04:15:10;;;;;;;6.15;3.30;;;7.40;92.20;;;;;;4977248;28;20033;-88
2021/11/13 04:17:36;;;;;;;4.93;3.13;;;7.40;92.10;;;;;;4959759;28;20031;-88
2021/11/13 04:20:03;;;;;;;6.50;3.78;;;7.40;92.20;;;;;;4959815;28;20031;-88
2021/11/13 04:22:29;;;;;;;8.98;4.68;;;7.40;92.10;;;;;;4968918;28;20050;-88
2021/11/13 04:24:55;;;;;;;5.47;3.35;;;7.40;92.10;;;;;;4979486;28;20121;-88
2021/11/13 04:27:20;;;;;;;6.20;3.22;;;7.40;92.00;;;;;;4997054;28;20037;-88
2021/11/13 04:29:47;;;;;;;6.20;3.00;;;7.40;92.00;;;;;;4980026;28;20081;-88
2021/11/13 04:32:16;;;;;;;6.30;3.13;;;7.40;92.00;;;;;;4979738;28;20041;-88
2021/11/13 04:35:03;;;;;;;7.38;3.33;;;7.40;92.00;;;;;;4979323;28;20100;-88
2021/11/13 04:37:30;;;;;;;7.57;3.50;;;7.40;91.90;;;;;;4996657;28;20110;-88
2021/11/13 04:39:56;;;;;;;7.90;4.47;;;7.30;91.80;;;;;;4979152;28;20034;-88
2021/11/13 04:42:22;;;;;;;7.57;4.00;;;7.30;91.80;;;;;;4979288;28;20036;-88
2021/11/13 04:44:49;;;;;;;8.82;4.13;;;7.30;91.80;;;;;;4979180;28;20069;-88
2021/11/13 04:47:17;;;;;;;8.10;4.20;;;7.20;91.80;;;;;;4977907;28;20561;-88
2021/11/13 04:49:43;;;;;;;8.10;4.22;;;7.20;91.90;;;;;;4979177;28;20421;-88
2021/11/13 04:52:09;;;;;;;6.07;3.08;;;7.20;92.00;;;;;;4996439;28;20106;-88
2021/11/13 04:54:36;;;;;;;7.43;4.28;;;7.10;92.10;;;;;;4978866;28;20030;-87
2021/11/13 04:57:04;;;;;;;5.97;3.75;;;7.10;92.10;;;;;;4978431;28;20030;-88
2021/11/13 04:59:30;;;;;;;8.02;4.15;;;7.00;92.20;;;;;;4978758;28;20496;-88
2021/11/13 05:01:56;;;;;;;6.70;3.35;;;7.00;92.30;;;;;;4978514;28;20125;-88
2021/11/13 05:04:21;;;;;;;6.40;3.97;;;6.90;92.50;;;;;;4978603;28;20492;-88
2021/11/13 05:06:47;;;;;;;7.95;3.70;;;7.00;92.50;;;;;;4996207;28;20061;-87
2021/11/13 05:09:13;;;;;;;7.15;3.85;;;6.90;92.60;;;;;;4978619;28;20026;-90
2021/11/13 05:11:38;;;;;;;7.35;4.38;;;6.90;92.60;;;;;;4978957;28;20373;-88
2021/11/13 05:14:04;;;;;;;6.00;3.92;;;6.90;92.70;;;;;;4978794;28;20458;-88
2021/11/13 05:16:30;;;;;;;9.95;3.58;;;6.90;92.80;;;;;;4978427;28;20540;-88
2021/11/13 05:18:56;;;;;;;8.32;4.47;;;6.90;92.90;;;;;;4978315;28;20031;-88
2021/11/13 05:21:21;;;;;;;8.13;4.35;;;6.90;92.90;;;;;;4978352;28;20390;-89
2021/11/13 05:23:47;;;;;;;9.00;5.00;;;6.90;93.00;;;;;;4995701;28;20023;-88
2021/11/13 05:26:13;;;;;;;8.90;4.85;;;6.90;93.10;;;;;;4979221;28;20070;-88
2021/11/13 05:28:43;;;;;;;6.30;3.88;;;6.90;93.10;;;;;;4978334;28;20034;-88
2021/11/13 05:31:10;;;;;;;8.60;4.45;;;6.90;93.20;;;;;;4978381;28;20436;-88
2021/11/13 05:33:36;;;;;;;6.75;3.35;;;7.00;93.30;;;;;;4978090;28;20030;-88
2021/11/13 05:36:02;;;;;;;10.85;5.32;;;7.00;93.20;;;;;;4977898;28;20073;-88
2021/11/13 05:38:28;;;;;;;9.13;4.95;;;7.10;93.20;;;;;;4978187;28;20045;-88
2021/11/13 05:40:53;;;;;;;9.65;5.93;;;7.10;93.20;;;;;;4978280;28;20030;-88
2021/11/13 05:43:19;;;;;;;16.63;8.82;;;7.10;93.10;;;;;;4978721;28;20480;-88
2021/11/13 05:45:47;;;;;;;11.70;6.30;;;7.10;93.20;;;;;;4978206;28;20382;-88
2021/11/13 05:48:14;;;;;;;9.30;5.05;;;7.20;93.10;;;;;;4978085;28;20524;-88
2021/11/13 05:50:40;;;;;;;13.00;7.00;;;7.20;93.10;;;;;;4995487;28;20058;-88
2021/11/13 05:53:05;;;;;;;13.35;7.00;;;7.20;93.00;;;;;;4977559;28;20104;-88
2021/11/13 05:55:31;;;;;;;12.48;6.50;;;7.20;92.90;;;;;;4993964;28;20030;-88
2021/11/13 05:57:57;;;;;;;10.02;6.05;;;7.20;92.90;;;;;;4976882;28;20037;-88
2021/11/13 06:00:25;;;;;;;11.93;5.85;;;7.30;92.90;;;;;;4994754;28;20034;-88
2021/11/13 06:02:53;;;;;;;9.48;4.53;;;7.30;92.90;;;;;;4977125;28;20033;-87
2021/11/13 06:05:19;;;;;;;9.50;4.75;;;7.30;92.80;;;;;;4977914;28;20132;-88
2021/11/13 06:07:46;;;;;;;11.38;6.57;;;7.40;92.80;;;;;;4977313;28;20063;-87
2021/11/13 06:10:13;;;;;;;9.95;5.43;;;7.40;92.70;;;;;;4977126;28;20072;-87
2021/11/13 06:12:40;;;;;;;8.85;4.95;;;7.40;92.60;;;;;;4977582;28;20061;-87
2021/11/13 06:15:07;;;;;;;7.85;4.65;;;7.40;92.60;;;;;;4977356;28;20472;-87
2021/11/13 06:17:34;;;;;;;11.65;4.93;;;7.50;92.70;;;;;;4977271;28;20093;-87
2021/11/13 06:20:00;;;;;;;13.93;6.45;;;7.50;92.70;;;;;;4977729;28;20065;-87
2021/11/13 06:22:26;;;;;;;6.90;4.32;;;7.60;92.70;;;;;;4976727;28;20054;-88
2021/11/13 06:24:52;;;;;;;10.95;4.90;;;7.70;92.70;;;;;;4977168;28;20058;-87
2021/11/13 06:27:18;;;;;;;12.10;5.22;;;7.80;92.50;;;;;;4994624;28;20378;-87
2021/11/13 06:29:45;;;;;;;8.50;4.60;;;7.90;92.50;;;;;;4977089;28;20029;-87
2021/11/13 06:32:11;;;;;;;9.35;5.25;;;8.00;92.40;;;;;;4977085;28;20076;-88
2021/11/13 06:34:39;;;;;;;9.73;4.88;;;8.10;92.30;;;;;;4977092;28;20386;-87
2021/11/13 06:37:05;;;;;;;9.13;5.28;;;8.20;92.20;;;;;;4977206;28;20084;-90
2021/11/13 06:39:31;;;;;;;10.45;5.70;;;8.30;92.10;;;;;;4978124;28;20097;-88
2021/11/13 06:41:57;;;;;;;9.43;5.72;;;8.30;92.00;;;;;;4976967;28;20477;-87
2021/11/13 06:44:23;;;;;;;9.70;5.70;;;8.40;91.90;;;;;;4976971;28;20053;-88
2021/11/13 06:46:49;;;;;;;12.90;7.68;;;8.50;91.70;;;;;;4976654;28;20362;-87
2021/11/13 06:49:14;;;;;;;11.18;6.35;;;8.60;91.60;;;;;;4976657;28;20035;-88
2021/11/13 06:51:41;;;;;;;11.48;6.70;;;8.60;91.50;;;;;;4976471;28;20026;-88
2021/11/13 06:54:07;;;;;;;12.25;6.75;;;8.70;91.20;;;;;;4976759;28;20437;-88
2021/11/13 06:56:33;;;;;;;9.48;6.00;;;8.70;91.10;;;;;;4994226;28;20054;-88
2021/11/13 06:58:59;;;;;;;12.02;5.85;;;8.80;91.20;;;;;;4976702;28;20065;-88
2021/11/13 07:01:24;;;;;;;13.38;6.50;;;8.90;91.20;;;;;;4976496;28;20037;-89
2021/11/13 07:03:50;;;;;;;8.48;5.15;;;9.10;91.20;;;;;;4976728;28;20022;-88
2021/11/13 07:06:16;;;;;;;9.18;5.38;;;9.30;91.10;;;;;;4976230;28;20448;-89
2021/11/13 07:08:42;;;;;;;16.33;7.10;;;9.40;90.90;;;;;;4976638;28;20038;-88
2021/11/13 07:11:07;;;;;;;12.95;7.75;;;9.60;90.40;;;;;;4980433;28;20038;-88
2021/11/13 07:13:33;;;;;;;15.55;8.05;;;9.70;89.00;;;;;;4980498;28;20026;-88
2021/11/13 07:15:59;;;;;;;17.80;9.30;;;9.70;87.00;;;;;;4980235;28;20034;-88
2021/11/13 07:18:25;;;;;;;12.43;6.88;;;9.60;87.80;;;;;;4980594;28;20458;-89
2021/11/13 07:20:57;;;;;;;13.07;6.95;;;9.50;88.30;;;;;;4980357;28;20031;-89
2021/11/13 07:23:24;;;;;;;14.85;8.85;;;9.50;88.40;;;;;;4980304;28;20133;-89
2021/11/13 07:25:50;;;;;;;14.32;7.55;;;9.50;88.10;;;;;;4982953;28;20053;-89
2021/11/13 07:28:19;;;;;;;13.65;7.97;;;9.50;87.50;;;;;;4984093;28;20030;-88
2021/11/13 07:30:47;;;;;;;12.10;6.35;;;9.50;87.70;;;;;;5001006;28;20058;-88
2021/11/13 07:33:13;;;;;;;10.32;5.72;;;9.50;87.40;;;;;;5017664;28;20527;-89
2021/11/13 07:35:43;;;;;;;11.05;6.07;;;9.50;87.00;;;;;;4999142;28;20026;-89
2021/11/13 07:38:11;;;;;;;12.05;5.30;;;9.50;86.00;;;;;;4998933;28;20034;-88
2021/11/13 07:40:37;;;;;;;9.70;5.75;;;9.50;86.50;;;;;;4999017;28;20041;-89
2021/11/13 07:43:03;;;;;;;9.00;5.25;;;9.40;84.90;;;;;;4998831;28;20088;-88
2021/11/13 07:45:30;;;;;;;11.48;5.50;;;9.40;85.80;;;;;;4999621;28;20025;-88
2021/11/13 07:47:57;;;;;;;15.18;5.90;;;9.40;85.80;;;;;;4999517;28;20088;-88
2021/11/13 07:50:23;;;;;;;11.77;5.75;;;9.40;85.50;;;;;;4999131;28;20026;-88
2021/11/13 07:52:49;;;;;;;14.02;5.70;;;9.30;85.30;;;;;;4999104;28;20076;-89
2021/11/13 07:55:17;;;;;;;9.60;5.30;;;9.30;85.80;;;;;;4998950;28;20037;-88
2021/11/13 07:57:44;;;;;;;8.85;4.90;;;9.30;85.70;;;;;;4999812;28;20409;-88
2021/11/13 08:00:12;;;;;;;9.80;5.32;;;9.30;85.60;;;;;;4999147;28;20469;-88
2021/11/13 08:02:38;;;;;;;10.25;5.47;;;9.20;85.30;;;;;;5016475;28;20030;-88
2021/11/13 08:05:05;;;;;;;8.55;4.57;;;9.30;85.50;;;;;;4999194;28;20540;-89
2021/11/13 08:07:30;;;;;;;8.52;4.95;;;9.30;85.80;;;;;;5015956;28;20098;-90
2021/11/13 08:09:56;;;;;;;8.05;3.90;;;9.40;85.50;;;;;;4998440;28;20026;-89
2021/11/13 08:12:22;;;;;;;10.07;5.25;;;9.40;86.00;;;;;;4999189;28;20187;-88
2021/11/13 08:14:48;;;;;;;9.00;5.95;;;9.50;85.40;;;;;;5002110;28;20030;-89
2021/11/13 08:17:13;;;;;;;11.52;5.18;;;9.60;84.90;;;;;;4999712;28;20069;-88
2021/11/13 08:19:39;;;;;;;12.55;6.70;;;9.60;84.20;;;;;;4998296;28;20121;-88
2021/11/13 08:22:05;;;;;;;12.35;7.03;;;9.60;83.90;;;;;;4998283;28;20058;-89
2021/11/13 08:24:31;;;;;;;13.00;7.38;;;9.60;83.80;;;;;;4999539;28;20026;-89
2021/11/13 08:26:57;;;;;;;10.20;5.43;;;9.60;83.60;;;;;;4998349;28;20030;-88
2021/11/13 08:29:23;;;;;;;7.32;4.25;;;9.50;82.50;;;;;;4998670;28;20026;-88
2021/11/13 08:31:48;;;;;;;7.35;4.38;;;9.60;83.60;;;;;;4998842;28;20029;-88
2021/11/13 08:34:15;;;;;;;7.88;5.75;;;9.60;84.10;;;;;;4998699;28;20053;-89
2021/11/13 08:36:40;;;;;;;7.45;4.07;;;9.70;84.40;;;;;;4998679;28;20022;-88
2021/11/13 08:39:07;;;;;;;8.70;5.32;;;9.70;83.90;;;;;;4998541;28;20029;-89
2021/11/13 08:41:33;;;;;;;7.35;5.32;;;9.80;83.60;;;;;;4998249;28;20037;-89
2021/11/13 08:44:01;;;;;;;14.32;6.85;;;9.80;83.60;;;;;;4998612;28;20084;-88
2021/11/13 08:46:29;;;;;;;8.25;4.70;;;9.90;83.60;;;;;;4999060;28;20037;-89
2021/11/13 08:48:54;;;;;;;9.85;5.50;;;9.90;83.50;;;;;;4999032;28;20408;-89
2021/11/13 08:51:21;;;;;;;7.68;6.72;;;9.80;83.00;;;;;;4997818;28;20026;-89
2021/11/13 08:53:53;;;;;;;15.60;8.00;;;9.80;83.30;;;;;;4997756;28;20107;-89
2021/11/13 08:56:24;;;;;;;10.02;6.20;;;9.80;83.70;;;;;;4998922;28;20034;-89
2021/11/13 08:58:54;;;;;;;18.50;7.88;;;9.80;83.80;;;;;;4998823;28;20201;-89
2021/11/13 09:01:22;;;;;;;9.65;6.03;;;9.70;83.90;;;;;;4998029;28;20129;-89
2021/11/13 09:03:50;;;;;;;12.98;6.80;;;9.70;84.50;;;;;;4997632;28;20117;-89
2021/11/13 09:06:19;;;;;;;11.05;6.22;;;9.70;84.80;;;;;;4998137;28;20053;-89
2021/11/13 09:08:46;;;;;;;7.63;4.82;;;9.70;84.70;;;;;;4998352;28;20034;-89
2021/11/13 09:11:19;;;;;;;12.82;7.65;;;9.70;84.90;;;;;;5015370;28;20088;-89
2021/11/13 09:13:45;;;;;;;12.20;6.53;;;9.70;84.80;;;;;;4997875;28;20026;-89
2021/11/13 09:16:12;;;;;;;14.15;7.05;;;9.60;84.60;;;;;;4997855;28;20030;-88
2021/11/13 09:18:42;;;;;;;12.48;6.97;;;9.60;84.60;;;;;;4997302;28;20034;-89
2021/11/13 09:21:09;;;;;;;13.68;7.28;;;9.50;85.00;;;;;;4997602;28;20033;-89
2021/11/13 09:23:35;;;;;;;11.20;7.07;;;9.60;84.90;;;;;;4996946;28;20054;-89
2021/11/13 09:26:02;;;;;;;10.05;6.90;;;9.60;84.60;;;;;;4997651;28;20116;-89
2021/11/13 09:28:29;;;;;;;12.70;6.07;;;9.50;84.80;;;;;;5014827;28;20022;-89
2021/11/13 09:30:55;;;;;;;13.55;7.47;;;9.50;84.60;;;;;;4997777;28;20026;-89
2021/11/13 09:33:21;;;;;;;11.23;6.45;;;9.50;84.40;;;;;;4996684;28;20428;-89
2021/11/13 09:35:47;;;;;;;12.05;7.22;;;9.50;84.80;;;;;;4998547;28;20480;-88
2021/11/13 09:38:12;;;;;;;10.18;7.10;;;9.40;84.80;;;;;;4997080;28;20113;-88
2021/11/13 09:40:39;;;;;;;12.60;7.68;;;9.40;85.30;;;;;;4997215;28;20084;-89
2021/11/13 09:43:05;;;;;;;11.25;7.65;;;9.40;85.60;;;;;;4997918;28;20030;-89
2021/11/13 09:45:32;;;;;;;10.50;6.22;;;9.40;85.50;;;;;;4997018;28;20121;-89
2021/11/13 09:48:00;;;;;;;12.35;7.35;;;9.50;85.20;;;;;;4996611;28;20493;-89
2021/11/13 09:50:32;;;;;;;14.07;6.82;;;9.40;85.10;;;;;;5014480;28;20033;-89
2021/11/13 09:52:58;;;;;;;10.85;5.80;;;9.40;85.10;;;;;;5014527;28;20400;-89
2021/11/13 09:55:26;;;;;;;13.07;7.53;;;9.40;85.60;;;;;;4996747;28;20026;-89
2021/11/13 09:57:52;;;;;;;14.18;7.53;;;9.40;85.20;;;;;;4996808;28;20519;-89
2021/11/13 10:00:26;;;;;;;13.80;7.93;;;9.40;84.70;;;;;;4996558;28;20061;-89
2021/11/13 10:02:52;;;;;;;13.63;7.00;;;9.40;85.10;;;;;;4996571;28;20036;-89
2021/11/13 10:05:19;;;;;;;8.88;5.82;;;9.40;85.40;;;;;;4996374;28;20120;-89
2021/11/13 10:07:46;;;;;;;10.60;5.88;;;9.40;85.60;;;;;;4998930;28;20030;-87
2021/11/13 10:10:37;;;;;;;10.70;6.95;;;9.50;85.60;;;;;;4996796;28;20033;-87
2021/11/13 10:13:05;;;;;;;15.93;8.15;;;9.60;85.80;;;;;;4972456;28;20092;-88
2021/11/13 10:15:35;;;;;;;9.25;5.05;;;9.60;85.50;;;;;;4997456;28;20543;-87
2021/11/13 10:18:18;;;;;;;9.75;6.35;;;9.70;85.20;;;;;;4996334;28;20037;-88
2021/11/13 10:20:59;;;;;;;8.32;4.28;;;9.70;84.80;;;;;;4996504;28;20136;-88
2021/11/13 10:23:27;;;;;;;8.27;5.72;;;9.80;84.80;;;;;;4995992;28;20056;-87
2021/11/13 10:26:07;;;;;;;12.48;5.80;;;9.90;84.60;;;;;;4996046;28;20053;-88
2021/11/13 10:28:50;;;;;;;9.50;6.38;;;10.00;84.20;;;;;;4996448;28;20080;-89
2021/11/13 10:31:23;;;;;;;13.20;6.45;;;10.00;83.70;;;;;;5009338;28;20116;-89
2021/11/13 10:33:50;;;;;;;13.60;6.47;;;10.10;83.30;;;;;;4994848;28;20069;-88
2021/11/13 10:36:25;;;;;;;8.30;4.60;;;10.10;83.10;;;;;;4982486;28;20041;-89
2021/11/13 10:39:11;;;;;;;10.45;6.35;;;10.10;83.40;;;;;;4977640;28;20029;-90
2021/11/13 10:41:58;;;;;;;12.48;7.43;;;10.20;83.00;;;;;;4977366;28;20465;-90
2021/11/13 10:44:40;;;;;;;10.43;6.22;;;10.20;82.40;;;;;;4981535;28;20035;-91
2021/11/13 10:47:15;;;;;;;11.93;7.72;;;10.20;82.30;;;;;;5002649;28;20045;-91
2021/11/13 10:49:41;;;;;;;13.60;8.27;;;10.20;82.00;;;;;;4999821;28;20034;-93
2021/11/13 10:52:08;;;;;;;11.00;7.15;;;10.10;82.00;;;;;;4997758;28;20018;-92
2021/11/13 10:54:35;;;;;;;14.73;7.25;;;10.10;82.10;;;;;;4997139;28;20030;-92
2021/11/13 10:57:06;;;;;;;10.00;5.93;;;10.10;82.40;;;;;;4997244;28;20091;-92
2021/11/13 10:59:35;;;;;;;8.38;5.72;;;10.10;82.40;;;;;;4999554;28;20034;-91
2021/11/13 11:02:05;;;;;;;9.10;5.38;;;10.10;82.60;;;;;;4997425;28;20446;-92
2021/11/13 11:04:35;;;;;;;9.65;6.07;;;10.10;82.70;;;;;;4978901;28;20451;-92
2021/11/13 11:07:12;;;;;;;7.28;4.72;;;10.20;82.30;;;;;;4978780;28;20080;-91
2021/11/13 11:09:39;;;;;;;11.45;5.50;;;10.20;81.90;;;;;;4978886;28;20623;-91
2021/11/13 11:12:11;;;;;;;10.05;6.30;;;10.30;81.20;;;;;;4979313;28;20022;-91
2021/11/13 11:14:40;;;;;;;7.22;4.88;;;10.20;80.10;;;;;;4977625;28;20061;-92
2021/11/13 11:17:09;;;;;;;9.70;5.65;;;10.20;80.60;;;;;;4977465;28;20031;-92
2021/11/13 11:19:37;;;;;;;8.13;4.53;;;10.20;81.00;;;;;;4984452;28;20489;-91
2021/11/13 11:22:09;;;;;;;6.72;4.40;;;10.30;80.50;;;;;;4976869;28;20482;-92
2021/11/13 11:24:55;;;;;;;8.40;4.78;;;10.30;80.30;;;;;;4977539;28;20382;-92
2021/11/13 11:27:25;;;;;;;6.40;4.20;;;10.30;80.20;;;;;;4977609;28;20061;-92
2021/11/13 11:30:11;;;;;;;9.82;5.70;;;10.40;80.10;;;;;;4995360;28;20101;-91
2021/11/13 11:32:42;;;;;;;9.35;5.30;;;10.40;78.80;;;;;;4996699;28;20373;-91
2021/11/13 11:35:11;;;;;;;8.70;4.80;;;10.40;78.60;;;;;;4996740;28;20148;-91
2021/11/13 11:37:47;;;;;;;8.20;4.45;;;10.40;78.70;;;;;;4996282;28;20030;-91
2021/11/13 11:40:23;;;;;;;6.45;4.25;;;10.50;79.20;;;;;;4996419;28;20069;-91
2021/11/13 11:42:53;;;;;;;9.55;4.82;;;10.40;79.20;;;;;;4996467;28;20632;-92
2021/11/13 11:45:24;;;;;;;8.10;3.95;;;10.50;78.70;;;;;;4995905;28;20076;-90
2021/11/13 11:47:55;;;;;;;5.85;3.03;;;10.50;79.10;;;;;;4997927;28;20026;-91
2021/11/13 11:50:26;;;;;;;6.57;4.13;;;10.50;78.90;;;;;;4996326;28;20033;-90
2021/11/13 11:52:57;;;;;;;4.05;3.13;;;10.50;79.10;;;;;;4996337;28;20502;-91
2021/11/13 11:55:24;;;;;;;6.35;3.58;;;10.60;78.80;;;;;;4997414;28;20034;-91
2021/11/13 11:58:16;;;;;;;6.10;3.38;;;10.60;78.90;;;;;;4999624;28;20129;-91
2021/11/13 12:00:43;;;;;;;6.65;3.92;;;10.60;78.30;;;;;;4998935;28;20025;-91
2021/11/13 12:03:21;;;;;;;7.03;4.28;;;10.70;78.70;;;;;;4999367;28;20113;-92
2021/11/13 12:05:50;;;;;;;12.15;5.95;;;10.70;77.60;;;;;;4999954;28;20052;-91
2021/11/13 12:08:22;;;;;;;6.55;4.30;;;10.60;77.40;;;;;;4999238;28;20036;-91
2021/11/13 12:10:49;;;;;;;8.02;4.55;;;10.60;77.50;;;;;;4999425;28;20032;-90
2021/11/13 12:13:30;;;;;;;7.97;4.45;;;10.50;77.20;;;;;;4999789;28;20122;-91
2021/11/13 12:16:01;;;;;;;7.60;4.55;;;10.50;77.70;;;;;;4999157;28;20026;-92
2021/11/13 12:18:35;;;;;;;6.43;4.38;;;10.40;77.80;;;;;;4999201;28;20030;-90
2021/11/13 12:21:03;;;;;;;;;;;10.40;77.80;;;;;;5001939;28;20065;-91
2021/11/13 12:23:32;;;;;;;6.60;3.67;;;10.40;77.00;;;;;;4999084;28;19924;-91
2021/11/13 12:26:23;;;;;;;6.72;4.57;;;10.40;77.80;;;;;;4999458;28;20053;-90
2021/11/13 12:28:56;;;;;;;5.95;3.78;;;10.40;77.50;;;;;;4998994;28;20025;-91
2021/11/13 12:31:26;;;;;;;11.15;4.38;;;10.40;78.00;;;;;;5016996;28;20029;-90
2021/11/13 12:34:01;;;;;;;4.13;3.00;;;10.40;77.80;;;;;;4999345;28;20033;-91
2021/11/13 12:36:30;;;;;;;8.52;4.28;;;10.40;77.70;;;;;;4998894;28;20034;-90
2021/11/13 12:38:56;;;;;;;6.40;5.30;;;10.40;77.40;;;;;;4998692;28;20037;-89
2021/11/13 12:41:26;;;;;;;9.98;5.53;;;10.30;77.40;;;;;;4999013;28;20385;-89
2021/11/13 12:43:55;;;;;;;4.78;3.17;;;10.30;77.60;;;;;;4998663;28;20033;-89
2021/11/13 12:46:42;;;;;;;8.15;4.20;;;10.30;77.70;;;;;;4998913;28;20748;-90
2021/11/13 12:49:22;;;;;;;6.78;3.80;;;10.30;77.70;;;;;;4994998;28;20084;-90
2021/11/13 12:51:53;;;;;;;7.05;4.05;;;10.30;77.00;;;;;;4998564;28;20045;-91
2021/11/13 12:54:52;;;;;;;5.32;3.53;;;10.20;77.40;;;;;;4998661;28;20033;-90
2021/11/13 12:57:34;;;;;;;3.72;2.63;;;10.20;77.20;;;;;;4998540;28;20467;-90